Latest Weather Observations for Mount Isa

IDQ60801

Issued at 4:33 pm EST Saturday 25 June 2016 (issued every 30 minutes, with the page automatically refreshed every 10 minutes)

About weather observations | Map of weather stations | Latest weather observations for QLD | Other Formats
Station Details ID: 029127 Name: MOUNT ISA AERO Lat: -20.68 Lon: 139.49 Height: 340.3 m
Data from the previous 72 hours. | See also: Recent months at Mount Isa
Date/Time
EST
Temp
°C
App
Temp
°C
Dew
Point
°C
Rel
Hum
%
Delta-T
°C
Wind Press
QNH
hPa
Press
MSL
hPa
Rain since
9am
mm
Dir  Spd
km/h
Gust
km/h
Spd
kts
Gust
kts
25/04:30pm 24.9 21.2 4.6 27 10.3 E 13 17 7 9 1015.7 - 0.0
25/04:00pm 25.3 21.7 5.0 27 10.4 E 13 19 7 10 1015.8 - 0.0
25/03:30pm 24.8 21.1 4.5 27 10.3 E 13 17 7 9 1015.7 - 0.0
25/03:00pm 24.1 20.3 4.0 27 10.1 E 13 20 7 11 1015.9 1015.2 0.0
25/02:30pm 23.7 19.6 4.1 28 9.8 E 15 20 8 11 1016.3 - 0.0
25/02:00pm 23.5 19.8 4.5 29 9.6 SE 13 19 7 10 1016.8 - 0.0
25/01:30pm 22.4 18.2 4.0 30 9.1 ESE 15 24 8 13 1017.5 - 0.0
25/01:00pm 21.9 17.8 4.5 32 8.7 ESE 15 20 8 11 1018.3 - 0.0
25/12:30pm 20.9 16.3 3.6 32 8.4 E 17 22 9 12 1018.9 - 0.0
25/12:00pm 20.5 15.8 3.3 32 8.3 E 17 22 9 12 1019.4 1018.7 0.0
25/11:30am 19.8 15.2 3.5 34 7.8 ESE 17 26 9 14 1019.8 - 0.0
25/11:00am 19.4 14.8 3.6 35 7.6 ESE 17 24 9 13 1020.1 - 0.0
25/10:30am 18.8 13.9 4.9 40 6.8 ESE 20 28 11 15 1020.1 - 0.0
25/10:00am 17.6 13.4 5.5 45 6.0 ESE 17 26 9 14 1020.3 - 0.0
25/09:30am 16.4 12.1 5.4 48 5.4 ESE 17 26 9 14 1020.6 - 0.0
25/09:00am 15.8 11.5 5.4 50 5.0 ESE 17 22 9 12 1020.5 1019.8 0.0
25/08:30am 14.9 10.6 5.4 53 4.6 ESE 17 26 9 14 1020.3 - 0.0
25/08:00am 14.0 10.2 5.6 57 4.0 ESE 15 19 8 10 1019.9 - 0.0
25/07:30am 12.9 9.4 5.6 61 3.5 SE 13 19 7 10 1019.7 - 0.0
25/07:00am 13.3 10.1 5.2 58 3.8 SE 11 17 6 9 1019.6 - 0.0
25/06:30am 13.5 9.6 5.4 58 3.9 SSE 15 19 8 10 1019.3 - 0.0
25/06:00am 13.2 9.3 5.4 59 3.7 SE 15 20 8 11 1019.0 1018.3 0.0
25/05:30am 13.5 10.0 5.4 58 3.9 SE 13 17 7 9 1019.0 - 0.0
25/05:00am 13.8 10.7 5.4 57 4.0 SE 11 15 6 8 1019.2 - 0.0
25/04:30am 14.2 10.7 5.3 55 4.3 SE 13 17 7 9 1018.9 - 0.0
25/04:00am 14.2 10.7 5.3 55 4.3 SE 13 19 7 10 1018.9 - 0.0
25/03:30am 14.4 10.8 5.2 54 4.4 SE 13 19 7 10 1019.0 - 0.0
25/03:00am 14.5 11.0 5.3 54 4.4 SE 13 19 7 10 1019.2 1018.5 0.0
25/02:30am 14.8 11.6 5.3 53 4.6 SE 11 17 6 9 1019.5 - 0.0
25/02:00am 15.0 11.4 5.2 52 4.7 SE 13 19 7 10 1020.1 - 0.0
25/01:30am 15.3 11.7 5.2 51 4.9 SE 13 19 7 10 1020.0 - 0.0
25/01:00am 15.5 12.4 5.7 52 4.8 SE 11 15 6 8 1019.8 - 0.0
25/12:30am 15.4 11.9 5.6 52 4.8 SSE 13 17 7 9 1019.8 - 0.0
25/12:00am 15.0 12.4 6.0 55 4.4 SE 9 13 5 7 1019.8 1019.2 0.0
 
Date/Time
EST
Temp
°C
App
Temp
°C
Dew
Point
°C
Rel
Hum
%
Delta-T
°C
Wind Press
QNH
hPa
Press
MSL
hPa
Rain since
9am
mm
Dir  Spd
km/h
Gust
km/h
Spd
kts
Gust
kts
24/11:30pm 15.5 12.4 5.7 52 4.8 SE 11 15 6 8 1019.8 - 0.0
24/11:00pm 15.9 12.5 5.8 51 4.9 SE 13 20 7 11 1019.8 - 0.0
24/10:30pm 16.1 12.4 6.5 53 4.8 SSE 15 20 8 11 1019.9 - 0.0
24/10:00pm 16.2 13.8 6.9 54 4.7 SE 9 13 5 7 1020.0 - 0.0
24/09:30pm 16.5 12.7 7.4 55 4.6 SSE 17 28 9 15 1020.1 - 0.0
24/09:00pm 17.1 13.7 7.5 53 4.9 SSE 15 19 8 10 1020.1 1019.5 0.0
24/08:30pm 17.8 14.8 7.5 51 5.3 SSE 13 17 7 9 1019.5 - 0.0
24/08:00pm 18.1 15.3 8.4 53 5.1 S 13 20 7 11 1019.2 - 0.0
24/07:30pm 18.7 14.7 8.4 51 5.4 S 19 24 10 13 1018.7 - 0.0
24/07:00pm 19.2 15.1 8.8 51 5.5 S 20 26 11 14 1018.4 - 0.0
24/06:30pm 19.7 15.9 9.9 53 5.3 S 20 30 11 16 1018.1 - 0.0
24/06:00pm 20.7 16.9 9.9 50 5.9 S 20 26 11 14 1017.7 1017.0 0.0
24/05:30pm 21.5 17.0 10.0 48 6.3 S 24 30 13 16 1017.4 - 0.0
24/05:00pm 22.2 17.7 10.0 46 6.7 SSE 24 32 13 17 1017.2 - 0.0
24/04:30pm 22.6 18.5 10.1 45 6.9 SSE 22 33 12 18 1017.0 - 0.0
24/04:00pm 23.1 18.5 10.9 46 6.9 S 26 35 14 19 1016.8 - 0.0
24/03:30pm 23.4 19.1 10.8 45 7.1 S 24 33 13 18 1016.9 - 0.0
24/03:00pm 23.2 18.9 10.6 45 7.1 S 24 32 13 17 1016.9 1016.2 0.0
24/02:30pm 22.9 18.6 10.7 46 6.8 S 24 32 13 17 1017.1 - 0.0
24/02:00pm 22.8 18.5 10.6 46 6.8 S 24 33 13 18 1017.5 - 0.0
24/01:30pm 22.1 18.1 11.8 52 5.9 SSE 24 32 13 17 1017.8 - 0.0
24/01:00pm 22.1 18.2 13.2 57 5.2 S 26 32 14 17 1018.2 - 0.0
24/12:30pm 21.6 17.4 13.5 60 4.7 S 28 35 15 19 1018.9 - 0.0
24/12:00pm 21.1 17.2 14.3 65 4.0 S 28 35 15 19 1019.1 1018.4 0.0
24/11:30am 21.4 17.9 14.6 65 4.1 SSE 26 35 14 19 1019.4 - 0.0
24/11:00am 19.9 16.0 14.3 70 3.3 SSE 28 37 15 20 1019.7 - 0.0
24/10:30am 19.4 14.5 13.8 70 3.3 SSE 32 41 17 22 1019.7 - 0.0
24/10:00am 19.8 15.2 13.5 67 3.7 SSE 30 39 16 21 1019.6 - 0.0
24/09:30am 20.5 15.2 13.2 63 4.2 S 33 41 18 22 1019.0 - 0.0
24/09:00am 20.0 14.6 12.7 63 4.2 SSE 33 46 18 25 1018.7 1018.0 0.0
24/08:30am 18.9 15.7 11.9 64 3.9 SSE 20 32 11 17 1018.3 - 0.0
24/08:00am 17.2 14.0 11.2 68 3.3 S 19 20 10 11 1018.2 - 0.0
24/07:30am 12.5 12.9 11.2 92 0.7 CALM 0 9 0 5 1017.5 - 0.0
24/07:00am 12.3 12.5 10.4 88 1.0 CALM 0 0 0 0 1016.9 - 0.0
24/06:30am 13.0 13.4 11.4 90 0.9 CALM 0 0 0 0 1016.5 - 0.0
24/06:00am 13.3 13.8 11.7 90 0.9 CALM 0 0 0 0 1016.2 1015.5 0.0
24/05:30am 12.9 13.5 11.8 93 0.6 CALM 0 0 0 0 1015.8 - 0.0
24/05:00am 12.1 12.2 10.3 89 0.9 CALM 0 0 0 0 1015.7 - 0.0
24/04:30am 11.9 12.1 10.5 91 0.7 CALM 0 0 0 0 1015.5 - 0.0
24/04:00am 11.6 10.5 10.0 90 0.8 S 6 7 3 4 1015.5 - 0.0
24/03:30am 11.3 10.9 9.6 89 0.9 S 2 9 1 5 1015.6 - 0.0
24/03:00am 11.5 11.1 9.9 90 0.8 WSW 2 7 1 4 1015.4 1014.7 0.0
24/02:30am 11.5 11.4 9.4 87 1.1 CALM 0 0 0 0 1015.7 - 0.0
24/02:00am 11.5 11.3 9.1 85 1.2 CALM 0 0 0 0 1015.6 - 0.0
24/01:30am 12.0 11.9 9.4 84 1.3 CALM 0 0 0 0 1015.7 - 0.0
24/01:00am 12.4 12.4 9.8 84 1.4 CALM 0 0 0 0 1015.6 - 0.0
24/12:30am 12.3 10.9 9.0 80 1.7 SSW 6 7 3 4 1015.5 - 0.0
24/12:00am 12.5 12.3 9.0 79 1.8 CALM 0 0 0 0 1015.5 1014.8 0.0
 
Date/Time
EST
Temp
°C
App
Temp
°C
Dew
Point
°C
Rel
Hum
%
Delta-T
°C
Wind Press
QNH
hPa
Press
MSL
hPa
Rain since
9am
mm
Dir  Spd
km/h
Gust
km/h
Spd
kts
Gust
kts
23/11:30pm 13.4 12.0 9.6 78 2.0 SSW 7 7 4 4 1015.4 - 0.0
23/11:00pm 13.1 12.9 9.0 76 2.1 CALM 0 0 0 0 1015.5 - 0.0
23/10:30pm 13.3 13.0 8.6 73 2.4 CALM 0 0 0 0 1015.5 - 0.0
23/10:00pm 13.6 13.3 8.7 72 2.5 CALM 0 0 0 0 1015.2 - 0.0
23/09:30pm 14.6 14.2 9.8 73 2.5 SSW 2 6 1 3 1015.0 - 0.0
23/09:00pm 14.9 13.6 9.1 68 3.0 S 6 7 3 4 1014.8 1014.1 0.0
23/08:30pm 14.6 14.2 8.1 65 3.3 CALM 0 0 0 0 1014.5 - 0.0
23/08:00pm 15.3 15.0 8.8 65 3.4 CALM 0 0 0 0 1014.1 - 0.0
23/07:30pm 17.5 17.1 8.4 55 4.7 CALM 0 2 0 1 1013.8 - 0.0
23/07:00pm 18.9 16.4 6.7 45 6.2 W 9 9 5 5 1013.3 - 0.0
23/06:30pm 20.9 18.3 4.0 33 8.3 WSW 7 11 4 6 1012.9 - 0.0
23/06:00pm 24.9 21.4 3.5 25 10.7 SW 11 15 6 8 1012.7 1012.0 0.0
23/05:30pm 26.9 23.0 3.4 22 11.9 WSW 13 15 7 8 1012.3 - 0.0
23/05:00pm 28.0 24.8 3.0 20 12.6 W 9 17 5 9 1011.9 - 0.0
23/04:30pm 28.1 24.1 3.0 20 12.7 WSW 13 19 7 10 1011.8 - 0.0
23/04:00pm 28.7 24.2 4.2 21 12.7 W 17 26 9 14 1011.9 - 0.0
23/03:30pm 28.6 24.1 4.2 21 12.6 WSW 17 26 9 14 1012.1 - 0.0
23/03:00pm 28.4 23.9 4.0 21 12.6 W 17 26 9 14 1012.2 1011.5 0.0
23/02:30pm 28.5 23.6 4.1 21 12.6 WSW 19 26 10 14 1012.4 - 0.0
23/02:00pm 27.7 23.2 4.1 22 12.1 WSW 17 24 9 13 1012.8 - 0.0
23/01:30pm 27.4 22.6 2.5 20 12.4 WNW 17 22 9 12 1013.3 - 0.0
23/01:00pm 27.4 24.1 4.5 23 11.8 SW 11 17 6 9 1013.9 - 0.0
23/12:30pm 25.7 23.5 5.3 27 10.6 S 6 9 3 5 1014.5 - 0.0
23/12:00pm 24.8 22.6 5.1 28 10.1 N 6 9 3 5 1014.9 1014.2 0.0
23/11:30am 24.1 21.1 5.9 31 9.4 N 11 13 6 7 1015.1 - 0.0
23/11:00am 22.7 20.3 8.8 41 7.5 NNE 11 15 6 8 1015.0 - 0.0
23/10:30am 21.5 19.6 9.1 45 6.7 NNE 9 13 5 7 1015.1 - 0.0
23/10:00am 19.3 18.0 9.8 54 5.1 N 7 9 4 5 1015.5 - 0.0
23/09:30am 17.9 17.9 9.8 59 4.4 CALM 0 0 0 0 1015.8 - 0.0
23/09:00am 15.2 14.1 10.6 74 2.5 S 7 11 4 6 1015.6 1014.9 0.0
23/08:30am 12.3 11.5 10.9 91 0.7 SSE 6 7 3 4 1015.3 - 0.0
23/08:00am 9.6 8.4 9.5 99 0.1 S 6 11 3 6 1015.1 - 0.0
23/07:30am 6.7 5.8 6.1 96 0.3 CALM 0 0 0 0 1015.0 - 0.0
23/07:00am 7.5 4.8 7.2 98 0.1 S 11 15 6 8 1015.1 - 0.0
23/06:30am 6.8 4.8 6.4 97 0.2 SSE 6 9 3 5 1014.8 - 0.0
23/06:00am 6.2 4.8 5.5 95 0.3 S 2 9 1 5 1014.6 1013.9 0.0
23/05:30am 6.4 5.4 5.7 95 0.3 CALM 0 0 0 0 1014.6 - 0.0
23/05:00am 6.8 5.9 6.1 95 0.3 CALM 0 0 0 0 1014.9 - 0.0
23/04:30am 7.2 6.4 6.5 95 0.3 CALM 0 0 0 0 1015.0 - 0.0
23/04:00am 7.0 6.1 6.1 94 0.4 CALM 0 0 0 0 1015.2 - 0.0
23/03:30am 7.6 6.1 6.7 94 0.4 S 4 7 2 4 1015.5 - 0.0
23/03:00am 7.7 6.9 6.6 93 0.5 CALM 0 0 0 0 1015.6 1014.9 0.0
23/02:30am 8.0 7.3 7.1 94 0.4 CALM 0 0 0 0 1015.6 - 0.0
23/02:00am 7.9 7.1 6.5 91 0.7 CALM 0 0 0 0 1015.7 - 0.0
23/01:30am 8.6 8.0 7.4 92 0.6 CALM 0 0 0 0 1015.8 - 0.0
23/01:00am 9.0 8.4 7.3 89 0.8 CALM 0 0 0 0 1015.7 - 0.0
23/12:30am 9.4 8.9 7.8 90 0.8 CALM 0 0 0 0 1015.8 - 0.0
23/12:00am 9.1 8.5 7.2 88 0.9 CALM 0 0 0 0 1016.0 1015.3 0.0
 
Date/Time
EST
Temp
°C
App
Temp
°C
Dew
Point
°C
Rel
Hum
%
Delta-T
°C
Wind Press
QNH
hPa
Press
MSL
hPa
Rain since
9am
mm
Dir  Spd
km/h
Gust
km/h
Spd
kts
Gust
kts
22/11:30pm 9.7 9.1 7.5 86 1.1 CALM 0 0 0 0 1015.9 - 0.0
22/11:00pm 10.0 9.4 7.4 84 1.3 CALM 0 0 0 0 1015.9 - 0.0
22/10:30pm 10.7 10.3 8.1 84 1.3 CALM 0 0 0 0 1015.6 - 0.0
22/10:00pm 11.3 10.7 7.2 76 2.0 CALM 0 0 0 0 1015.5 - 0.0
22/09:30pm 11.8 11.3 7.7 76 2.0 CALM 0 0 0 0 1015.4 - 0.0
22/09:00pm 13.0 11.3 8.3 73 2.4 S 7 9 4 5 1015.2 1014.5 0.0
22/08:30pm 15.5 13.3 7.8 60 3.9 S 9 9 5 5 1014.6 - 0.0
22/08:00pm 18.7 16.5 7.8 49 5.7 S 9 9 5 5 1014.0 - 0.0
22/07:30pm 19.4 17.0 8.7 50 5.7 S 11 13 6 7 1013.7 - 0.0
22/07:00pm 16.6 14.1 8.1 57 4.4 S 11 11 6 6 1013.5 - 0.0
22/06:30pm 18.9 16.3 6.1 43 6.4 S 9 9 5 5 1013.3 - 0.0
22/06:00pm 24.0 20.4 2.8 25 10.4 S 11 13 6 7 1013.1 1012.4 0.0
22/05:30pm 25.4 21.8 2.8 23 11.2 S 11 15 6 8 1012.9 - 0.0
22/05:00pm 26.1 22.2 1.4 20 12.0 S 11 13 6 7 1012.7 - 0.0

Other Formats:

Comma delimited format used in spreadsheet applications
http://www.bom.gov.au/fwo/IDQ60801/IDQ60801.94332.axf

JavaScript Object Notation format (JSON) in row-major order
http://www.bom.gov.au/fwo/IDQ60801/IDQ60801.94332.json